Time;durP1;ratioP1;P1;durP2;ratioP2;P2;SDS_P1;SDS_P2;PMS_P1;PMS_P2;Temp;Humidity;BMP_temperature;BMP_pressure;BME280_temperature;BME280_humidity;BME280_pressure;Samples;Min_cycle;Max_cycle;Signal;HPM_P1;HPM_P2
2024/04/04 00:00:06;;;;;;;0.60;0.60;;;7.00;91.80;;;;;;5032359;28;20029;-86
2024/04/04 00:02:32;;;;;;;0.60;0.60;;;7.00;91.90;;;;;;5054827;28;20068;-88
2024/04/04 00:04:59;;;;;;;0.93;0.70;;;6.90;91.80;;;;;;5048839;28;20038;-85
2024/04/04 00:07:25;;;;;;;1.17;0.90;;;7.00;91.90;;;;;;5032354;28;20029;-87
2024/04/04 00:09:52;;;;;;;1.83;1.13;;;7.00;92.00;;;;;;5037049;28;20044;-85
2024/04/04 00:12:19;;;;;;;1.30;1.00;;;7.00;91.90;;;;;;5033541;28;20021;-87
2024/04/04 00:14:46;;;;;;;1.33;1.00;;;7.00;91.80;;;;;;5014398;28;20038;-88
2024/04/04 00:17:12;;;;;;;1.35;0.98;;;6.90;91.90;;;;;;5014908;28;20045;-86
2024/04/04 00:19:37;;;;;;;2.10;0.80;;;6.90;92.00;;;;;;5040600;28;20109;-84
2024/04/04 00:22:03;;;;;;;0.82;0.80;;;7.00;92.10;;;;;;5029363;28;20079;-85
2024/04/04 00:24:29;;;;;;;1.15;1.00;;;7.00;92.10;;;;;;5027118;28;20025;-80
2024/04/04 00:26:55;;;;;;;1.17;0.80;;;7.00;92.00;;;;;;5022348;28;20520;-79
2024/04/04 00:29:21;;;;;;;1.30;0.95;;;7.00;92.00;;;;;;5028872;28;20049;-81
2024/04/04 00:31:46;;;;;;;0.68;0.50;;;7.00;92.10;;;;;;5021638;28;20038;-78
2024/04/04 00:34:12;;;;;;;0.73;0.73;;;7.00;92.10;;;;;;5032118;28;20026;-80
2024/04/04 00:36:38;;;;;;;1.33;1.10;;;7.00;92.00;;;;;;5031934;28;20028;-78
2024/04/04 00:39:04;;;;;;;1.65;1.00;;;7.00;92.20;;;;;;5031203;28;20025;-79
2024/04/04 00:41:30;;;;;;;1.00;0.90;;;7.00;92.20;;;;;;5014288;28;20026;-78
2024/04/04 00:43:56;;;;;;;1.35;0.80;;;7.00;92.20;;;;;;5032613;28;20033;-78
2024/04/04 00:46:23;;;;;;;1.83;1.05;;;7.00;92.10;;;;;;5014172;28;20029;-80
2024/04/04 00:48:49;;;;;;;1.00;0.80;;;6.90;92.00;;;;;;5014232;28;20051;-78
2024/04/04 00:51:15;;;;;;;1.10;0.80;;;6.90;92.30;;;;;;5030157;28;20184;-79
2024/04/04 00:53:41;;;;;;;0.85;0.70;;;6.90;92.10;;;;;;5019887;28;20121;-80
2024/04/04 00:56:07;;;;;;;1.73;0.93;;;6.90;92.00;;;;;;5032442;28;20179;-78
2024/04/04 00:58:35;;;;;;;1.23;0.88;;;6.90;91.90;;;;;;5031788;28;20109;-78
2024/04/04 01:01:01;;;;;;;1.40;0.90;;;6.90;92.10;;;;;;5031949;28;20045;-80
2024/04/04 01:03:27;;;;;;;1.13;0.88;;;6.90;92.00;;;;;;5033145;28;20044;-79
2024/04/04 01:05:53;;;;;;;2.75;0.90;;;6.90;92.00;;;;;;5031935;28;20133;-79
2024/04/04 01:08:21;;;;;;;1.92;1.02;;;6.90;91.80;;;;;;5031702;28;20101;-78
2024/04/04 01:10:46;;;;;;;1.67;0.80;;;6.90;91.60;;;;;;5029950;28;20037;-77
2024/04/04 01:13:13;;;;;;;1.08;0.70;;;6.90;91.70;;;;;;5028534;28;20033;-79
2024/04/04 01:15:39;;;;;;;1.50;1.10;;;6.90;91.70;;;;;;5031682;28;20048;-79
2024/04/04 01:18:04;;;;;;;1.33;0.90;;;6.80;91.50;;;;;;5031621;28;20041;-79
2024/04/04 01:20:30;;;;;;;0.47;0.43;;;6.80;91.60;;;;;;5031949;28;20049;-79
2024/04/04 01:22:56;;;;;;;1.20;0.55;;;6.70;91.20;;;;;;5031847;28;20029;-77
2024/04/04 01:25:22;;;;;;;1.55;0.73;;;6.60;91.40;;;;;;5019324;28;20022;-79
2024/04/04 01:27:49;;;;;;;0.63;0.55;;;6.50;91.20;;;;;;5025285;28;20030;-78
2024/04/04 01:30:18;;;;;;;7.20;1.15;;;6.50;91.10;;;;;;5031768;28;20386;-78
2024/04/04 01:32:44;;;;;;;0.93;0.50;;;6.50;91.10;;;;;;5031517;28;20056;-77
2024/04/04 01:35:10;;;;;;;0.52;0.50;;;6.40;91.00;;;;;;5031686;28;20021;-79
2024/04/04 01:37:37;;;;;;;0.52;0.50;;;6.40;91.00;;;;;;5031472;28;20433;-79
2024/04/04 01:40:04;;;;;;;1.10;0.75;;;6.40;91.20;;;;;;5031600;28;20017;-78
2024/04/04 01:42:30;;;;;;;3.47;1.00;;;6.50;91.20;;;;;;5031477;28;20041;-79
2024/04/04 01:44:56;;;;;;;0.65;0.60;;;6.50;91.30;;;;;;5023193;28;20026;-78
2024/04/04 01:47:22;;;;;;;0.57;0.47;;;6.40;91.30;;;;;;5023125;28;20394;-79
2024/04/04 01:49:48;;;;;;;1.20;0.73;;;6.40;91.50;;;;;;5016032;28;20109;-79
2024/04/04 01:52:13;;;;;;;0.82;0.70;;;6.50;91.80;;;;;;5035238;28;20069;-79
2024/04/04 01:54:39;;;;;;;0.70;0.60;;;6.50;91.90;;;;;;5035224;28;20021;-80
2024/04/04 01:57:05;;;;;;;2.60;1.00;;;6.40;92.00;;;;;;5017359;28;20057;-78
2024/04/04 01:59:31;;;;;;;1.38;0.93;;;6.40;92.10;;;;;;5035165;28;20036;-77
2024/04/04 02:01:56;;;;;;;1.90;0.60;;;6.50;92.20;;;;;;5034641;28;20037;-79
2024/04/04 02:04:22;;;;;;;0.73;0.60;;;6.50;92.40;;;;;;5035409;28;20021;-79
2024/04/04 02:06:48;;;;;;;1.13;0.55;;;6.60;92.30;;;;;;5034776;28;20021;-78
2024/04/04 02:09:14;;;;;;;1.10;0.80;;;6.60;92.30;;;;;;5035101;28;20203;-78
2024/04/04 02:11:40;;;;;;;0.75;0.60;;;6.50;92.30;;;;;;5034771;28;20029;-78
2024/04/04 02:14:09;;;;;;;4.32;1.02;;;6.50;92.30;;;;;;5035020;28;20025;-77
2024/04/04 02:16:37;;;;;;;0.88;0.70;;;6.50;92.40;;;;;;5033864;28;20152;-78
2024/04/04 02:19:03;;;;;;;1.38;0.80;;;6.50;92.30;;;;;;5009940;28;20130;-78
2024/04/04 02:21:29;;;;;;;1.25;0.88;;;6.40;92.30;;;;;;5020352;28;20057;-78
2024/04/04 02:23:55;;;;;;;0.88;0.80;;;6.40;92.40;;;;;;5015459;28;20030;-77
2024/04/04 02:26:21;;;;;;;2.45;1.25;;;6.50;92.60;;;;;;5001803;28;20153;-78
2024/04/04 02:28:46;;;;;;;2.60;1.20;;;6.50;92.60;;;;;;5014758;28;20104;-80
2024/04/04 02:31:12;;;;;;;1.17;0.93;;;6.60;92.60;;;;;;5014986;28;20378;-79
2024/04/04 02:33:39;;;;;;;0.57;0.57;;;6.60;92.50;;;;;;5014665;28;20018;-78
2024/04/04 02:36:05;;;;;;;0.80;0.73;;;6.60;92.60;;;;;;5012343;28;20026;-78
2024/04/04 02:38:31;;;;;;;1.00;0.90;;;6.60;92.70;;;;;;5014311;28;20081;-77
2024/04/04 02:40:57;;;;;;;1.33;0.90;;;6.60;92.80;;;;;;5018439;28;20028;-80
2024/04/04 02:43:22;;;;;;;1.20;1.10;;;6.70;92.80;;;;;;5014211;28;20029;-80
2024/04/04 02:46:02;;;;;;;0.80;0.73;;;6.60;92.90;;;;;;5014698;28;20029;-78
2024/04/04 02:48:28;;;;;;;1.85;0.98;;;6.70;93.00;;;;;;5001542;28;20021;-79
2024/04/04 02:50:58;;;;;;;0.80;0.77;;;6.70;92.90;;;;;;5014703;28;20026;-78
2024/04/04 02:53:24;;;;;;;1.45;0.93;;;6.70;92.80;;;;;;5014796;28;20025;-78
2024/04/04 02:55:58;;;;;;;1.15;1.00;;;6.70;92.70;;;;;;5014265;28;20049;-79
2024/04/04 02:58:24;;;;;;;1.52;1.00;;;6.70;92.80;;;;;;5014144;28;20014;-78
2024/04/04 03:00:53;;;;;;;1.48;1.00;;;6.70;92.80;;;;;;5014155;28;20490;-77
2024/04/04 03:03:19;;;;;;;1.00;0.90;;;6.70;93.00;;;;;;5013705;28;20029;-78
2024/04/04 03:05:46;;;;;;;1.50;1.30;;;6.60;93.10;;;;;;5014154;28;20030;-78
2024/04/04 03:08:15;;;;;;;2.03;1.27;;;6.60;93.30;;;;;;5013873;28;20033;-78
2024/04/04 03:10:41;;;;;;;1.63;1.15;;;6.60;93.50;;;;;;4996710;28;20038;-79
2024/04/04 03:13:08;;;;;;;1.30;1.00;;;6.50;93.60;;;;;;5014214;28;20048;-78
2024/04/04 03:15:34;;;;;;;1.90;1.25;;;6.50;93.80;;;;;;5014059;28;20022;-77
2024/04/04 03:18:01;;;;;;;1.45;1.10;;;6.60;93.90;;;;;;5005240;28;20553;-78
2024/04/04 03:20:26;;;;;;;3.75;1.13;;;6.60;94.00;;;;;;5033488;28;20105;-79
2024/04/04 03:22:52;;;;;;;1.20;0.93;;;6.70;93.90;;;;;;5033398;28;20046;-78
2024/04/04 03:25:18;;;;;;;2.00;1.40;;;6.80;93.90;;;;;;5025719;28;20026;-77
2024/04/04 03:27:44;;;;;;;1.05;0.90;;;6.70;93.90;;;;;;5032160;28;20059;-76
2024/04/04 03:30:10;;;;;;;1.42;1.23;;;6.70;93.90;;;;;;5015497;28;20033;-79
2024/04/04 03:32:37;;;;;;;2.17;1.13;;;6.80;93.90;;;;;;5033436;28;20026;-77
2024/04/04 03:35:03;;;;;;;1.70;1.13;;;6.90;93.80;;;;;;5015550;28;20022;-78
2024/04/04 03:37:30;;;;;;;1.20;0.82;;;6.90;93.70;;;;;;5015333;28;20029;-77
2024/04/04 03:39:56;;;;;;;1.00;0.85;;;6.90;93.70;;;;;;5033167;28;20014;-77
2024/04/04 03:42:22;;;;;;;1.80;1.20;;;6.90;93.50;;;;;;5033012;28;20095;-79
2024/04/04 03:44:51;;;;;;;1.50;0.85;;;6.90;93.40;;;;;;5027716;28;20045;-79
2024/04/04 03:47:18;;;;;;;1.80;1.00;;;6.90;93.40;;;;;;5033135;28;20390;-77
2024/04/04 03:49:43;;;;;;;3.78;1.33;;;6.80;93.40;;;;;;5032886;28;20029;-78
2024/04/04 03:52:10;;;;;;;1.42;1.33;;;6.80;93.20;;;;;;5034115;28;20029;-79
2024/04/04 03:54:36;;;;;;;1.50;0.95;;;6.80;93.10;;;;;;5032202;28;20028;-77
2024/04/04 03:57:02;;;;;;;1.27;1.00;;;6.80;93.20;;;;;;5015232;28;20590;-79
2024/04/04 03:59:27;;;;;;;1.42;1.00;;;6.90;93.20;;;;;;5033218;28;20130;-78
2024/04/04 04:01:57;;;;;;;1.85;0.80;;;6.90;93.10;;;;;;5032420;28;20049;-78
2024/04/04 04:04:23;;;;;;;1.67;1.10;;;6.90;93.00;;;;;;5033025;28;20393;-79
2024/04/04 04:06:49;;;;;;;3.88;1.10;;;6.90;92.80;;;;;;5032401;28;20017;-79
2024/04/04 04:09:14;;;;;;;1.60;1.20;;;7.00;92.80;;;;;;5032485;28;20604;-78
2024/04/04 04:11:40;;;;;;;3.17;1.35;;;7.00;92.90;;;;;;5018043;28;20022;-78
2024/04/04 04:14:06;;;;;;;1.30;1.02;;;7.00;92.90;;;;;;5032365;28;20033;-78
2024/04/04 04:16:32;;;;;;;3.95;1.25;;;7.00;92.90;;;;;;5032568;28;20552;-80
2024/04/04 04:18:57;;;;;;;1.83;1.38;;;7.00;93.00;;;;;;5032770;28;20068;-78
2024/04/04 04:21:26;;;;;;;1.65;1.15;;;7.10;93.10;;;;;;5033000;28;20023;-77
2024/04/04 04:23:54;;;;;;;3.85;1.02;;;7.20;92.80;;;;;;5031584;28;20029;-79
2024/04/04 04:26:20;;;;;;;4.43;1.10;;;7.20;92.70;;;;;;5027939;28;20014;-78
2024/04/04 04:28:46;;;;;;;1.60;1.00;;;7.20;92.70;;;;;;5032212;28;20068;-77
2024/04/04 04:31:26;;;;;;;1.75;1.25;;;7.20;92.60;;;;;;5032180;28;20470;-78
2024/04/04 04:33:56;;;;;;;2.05;1.30;;;7.30;92.60;;;;;;5032414;28;20079;-79
2024/04/04 04:36:26;;;;;;;2.97;1.08;;;7.40;92.60;;;;;;5031945;28;20021;-79
2024/04/04 04:38:53;;;;;;;2.17;1.35;;;7.50;92.40;;;;;;5032001;28;20027;-78
2024/04/04 04:41:19;;;;;;;2.17;0.98;;;7.70;92.40;;;;;;5026960;28;20029;-80
2024/04/04 04:43:46;;;;;;;1.70;1.20;;;7.90;92.10;;;;;;5032142;28;20463;-78
2024/04/04 04:46:16;;;;;;;1.65;1.23;;;7.80;91.50;;;;;;5032569;28;20048;-82
2024/04/04 04:48:42;;;;;;;3.42;1.13;;;7.70;91.60;;;;;;5033468;28;20060;-79
2024/04/04 04:51:09;;;;;;;2.53;1.15;;;7.70;91.70;;;;;;5033333;28;20021;-79
2024/04/04 04:53:35;;;;;;;2.53;1.65;;;7.60;91.50;;;;;;5032141;28;20136;-79
2024/04/04 04:56:01;;;;;;;6.82;1.63;;;7.60;91.50;;;;;;5030512;28;20095;-80
2024/04/04 04:58:27;;;;;;;2.40;1.30;;;7.60;91.50;;;;;;5019225;28;20389;-81
2024/04/04 05:00:53;;;;;;;3.50;1.10;;;7.50;91.40;;;;;;5013873;28;20029;-80
2024/04/04 05:03:23;;;;;;;2.40;1.50;;;7.40;91.30;;;;;;5031685;28;20033;-79
2024/04/04 05:05:52;;;;;;;5.10;1.40;;;7.40;91.20;;;;;;5032065;28;20525;-78
2024/04/04 05:08:29;;;;;;;1.85;1.02;;;7.30;91.20;;;;;;5031704;28;20033;-82
2024/04/04 05:10:55;;;;;;;5.10;1.80;;;7.30;91.20;;;;;;5032006;28;20037;-80
2024/04/04 05:13:21;;;;;;;5.53;1.50;;;7.20;91.20;;;;;;5031614;28;20094;-81
2024/04/04 05:15:53;;;;;;;1.23;1.15;;;7.10;91.40;;;;;;5031386;28;20055;-77
2024/04/04 05:18:22;;;;;;;2.60;1.33;;;6.90;91.70;;;;;;5031315;28;20053;-79
2024/04/04 05:20:48;;;;;;;3.08;1.48;;;7.00;92.00;;;;;;5031549;28;20021;-80
2024/04/04 05:23:14;;;;;;;1.67;1.40;;;7.00;92.40;;;;;;5032459;28;20029;-79
2024/04/04 05:25:40;;;;;;;4.55;1.20;;;6.60;93.00;;;;;;5019218;28;20028;-81
2024/04/04 05:28:06;;;;;;;3.55;1.27;;;6.40;93.90;;;;;;5017807;28;20025;-78
2024/04/04 05:30:32;;;;;;;3.38;1.27;;;6.30;94.60;;;;;;5035731;28;20540;-80
2024/04/04 05:33:02;;;;;;;1.75;1.00;;;6.10;95.30;;;;;;5035377;28;20030;-80
2024/04/04 05:35:30;;;;;;;2.55;1.20;;;5.90;95.90;;;;;;5035497;28;20397;-77
2024/04/04 05:37:56;;;;;;;4.50;1.77;;;5.90;96.10;;;;;;5035615;28;20026;-80
2024/04/04 05:40:25;;;;;;;2.75;1.67;;;5.80;96.30;;;;;;5017867;28;20068;-79
2024/04/04 05:42:51;;;;;;;0.80;0.80;;;5.70;96.80;;;;;;5029836;28;20033;-79
2024/04/04 05:45:17;;;;;;;1.48;0.80;;;5.60;96.90;;;;;;5017411;28;20021;-79
2024/04/04 05:47:43;;;;;;;5.45;1.05;;;5.60;97.00;;;;;;5035227;28;20018;-80
2024/04/04 05:50:09;;;;;;;6.40;1.20;;;5.70;97.10;;;;;;5035188;28;20386;-79
2024/04/04 05:52:35;;;;;;;1.60;1.02;;;5.90;96.70;;;;;;5033654;28;20117;-79
2024/04/04 05:55:02;;;;;;;1.15;1.00;;;6.00;96.60;;;;;;5034753;28;20048;-79
2024/04/04 05:57:28;;;;;;;4.27;1.00;;;6.20;96.50;;;;;;5032905;28;20021;-78
2024/04/04 05:59:54;;;;;;;3.13;2.08;;;6.50;96.50;;;;;;5037929;28;20033;-80
2024/04/04 06:02:20;;;;;;;1.77;0.85;;;6.70;96.10;;;;;;5029111;28;20052;-79
2024/04/04 06:04:46;;;;;;;1.45;1.00;;;6.90;95.30;;;;;;5020485;28;20037;-79
2024/04/04 06:07:12;;;;;;;0.73;0.63;;;7.00;94.70;;;;;;5033160;28;20026;-80
2024/04/04 06:09:38;;;;;;;2.45;1.33;;;7.00;94.20;;;;;;5024064;28;20024;-79
2024/04/04 06:12:05;;;;;;;2.88;1.20;;;6.90;94.00;;;;;;5015792;28;20120;-79
2024/04/04 06:14:31;;;;;;;3.17;1.50;;;7.00;94.10;;;;;;5027786;28;20034;-78
2024/04/04 06:16:57;;;;;;;2.00;1.00;;;6.90;93.90;;;;;;5033020;28;20548;-80
2024/04/04 06:19:23;;;;;;;1.50;1.10;;;7.10;94.00;;;;;;5023758;28;20051;-82
2024/04/04 06:21:49;;;;;;;4.90;1.88;;;7.20;93.60;;;;;;5016348;28;20030;-79
2024/04/04 06:24:15;;;;;;;1.33;1.23;;;7.20;93.30;;;;;;5022417;28;20051;-77
2024/04/04 06:26:44;;;;;;;1.58;1.25;;;7.30;93.20;;;;;;5023767;28;20478;-79
2024/04/04 06:29:10;;;;;;;1.95;1.75;;;7.30;93.10;;;;;;5034156;28;20024;-77
2024/04/04 06:31:36;;;;;;;4.22;1.38;;;7.30;93.00;;;;;;5034213;28;20092;-77
2024/04/04 06:34:02;;;;;;;3.17;1.50;;;7.40;92.70;;;;;;5034027;28;20136;-77
2024/04/04 06:36:27;;;;;;;5.40;3.10;;;7.40;92.70;;;;;;5034095;28;20025;-79
2024/04/04 06:38:54;;;;;;;3.30;1.75;;;7.50;92.70;;;;;;5016140;28;20053;-79
2024/04/04 06:41:20;;;;;;;4.90;2.03;;;7.60;92.40;;;;;;5016133;28;20508;-78
2024/04/04 06:43:46;;;;;;;2.45;1.60;;;7.70;92.30;;;;;;5015995;28;20045;-79
2024/04/04 06:46:12;;;;;;;2.65;1.40;;;7.90;91.90;;;;;;5033956;28;20105;-77
2024/04/04 06:48:41;;;;;;;2.70;1.30;;;7.90;91.60;;;;;;5034355;28;20033;-77
2024/04/04 06:51:09;;;;;;;1.60;1.30;;;7.90;91.20;;;;;;5033762;28;20037;-78
2024/04/04 06:53:37;;;;;;;3.33;1.42;;;7.90;91.30;;;;;;5033904;28;20304;-77
2024/04/04 06:56:04;;;;;;;;;;;7.80;90.40;;;;;;5016527;28;20026;-78
2024/04/04 06:58:29;;;;;;;5.93;1.45;;;7.70;90.50;;;;;;5033530;28;20002;-78
2024/04/04 07:00:59;;;;;;;8.18;2.30;;;7.90;90.50;;;;;;5033662;28;20459;-79
2024/04/04 07:03:25;;;;;;;3.78;0.95;;;8.10;90.10;;;;;;5033361;28;20033;-78
2024/04/04 07:05:51;;;;;;;2.50;1.00;;;8.20;90.00;;;;;;5033859;28;20414;-79
2024/04/04 07:08:20;;;;;;;2.08;1.50;;;8.30;88.90;;;;;;5033539;28;20029;-78
2024/04/04 07:10:46;;;;;;;2.95;1.50;;;8.20;87.90;;;;;;5015609;28;20053;-77
2024/04/04 07:13:14;;;;;;;7.78;1.58;;;8.20;88.10;;;;;;5033434;28;20029;-77
2024/04/04 07:15:40;;;;;;;4.50;1.65;;;8.30;88.40;;;;;;5033366;28;20444;-77
2024/04/04 07:18:10;;;;;;;3.78;2.15;;;8.30;88.00;;;;;;5033154;28;20137;-79
2024/04/04 07:20:39;;;;;;;1.67;1.30;;;8.40;88.30;;;;;;5033255;28;20022;-76
2024/04/04 07:23:05;;;;;;;3.28;1.42;;;8.30;87.00;;;;;;5033157;28;20034;-77
2024/04/04 07:25:32;;;;;;;2.03;1.50;;;8.20;86.50;;;;;;5019444;28;20482;-77
2024/04/04 07:27:58;;;;;;;7.20;1.60;;;8.10;86.30;;;;;;5033141;28;20100;-79
2024/04/04 07:30:24;;;;;;;3.20;1.30;;;8.00;86.30;;;;;;5033347;28;20034;-78
2024/04/04 07:32:50;;;;;;;5.03;1.38;;;8.00;86.50;;;;;;5033083;28;20077;-80
2024/04/04 07:35:16;;;;;;;3.20;1.45;;;8.00;86.30;;;;;;5023113;28;20100;-79
2024/04/04 07:37:42;;;;;;;4.07;2.10;;;7.90;86.20;;;;;;5028928;28;20112;-78
2024/04/04 07:40:08;;;;;;;3.78;1.83;;;8.00;87.00;;;;;;5032892;28;20010;-78
2024/04/04 07:42:34;;;;;;;2.25;1.25;;;8.20;86.20;;;;;;5033150;28;20037;-78
2024/04/04 07:45:00;;;;;;;2.92;1.00;;;8.40;85.00;;;;;;5032778;28;20049;-78
2024/04/04 07:47:26;;;;;;;3.38;1.15;;;8.50;84.20;;;;;;5032095;28;20080;-77
2024/04/04 07:49:52;;;;;;;1.92;1.73;;;8.70;83.40;;;;;;5033034;28;20068;-79
2024/04/04 07:52:19;;;;;;;3.97;0.88;;;8.90;84.00;;;;;;5032674;28;20025;-77
2024/04/04 07:54:45;;;;;;;5.97;1.80;;;9.50;83.10;;;;;;5032636;28;20500;-79
2024/04/04 07:57:11;;;;;;;1.15;0.77;;;9.70;80.90;;;;;;5032490;28;20040;-78
2024/04/04 07:59:38;;;;;;;5.70;2.65;;;9.60;79.10;;;;;;5032517;28;20618;-78
2024/04/04 08:02:05;;;;;;;3.55;1.17;;;9.40;80.10;;;;;;5032641;28;20159;-79
2024/04/04 08:04:31;;;;;;;3.33;1.30;;;9.30;79.50;;;;;;5032764;28;20037;-79
2024/04/04 08:06:57;;;;;;;3.42;1.67;;;9.10;79.90;;;;;;5032186;28;20037;-80
2024/04/04 08:09:23;;;;;;;4.10;1.27;;;9.00;80.90;;;;;;5032383;28;20124;-78
2024/04/04 08:11:52;;;;;;;5.30;1.63;;;9.10;81.20;;;;;;5032298;28;20018;-79
2024/04/04 08:14:18;;;;;;;6.82;1.50;;;9.00;81.10;;;;;;5032442;28;20096;-76
2024/04/04 08:16:44;;;;;;;11.05;2.55;;;9.00;81.20;;;;;;5014438;28;20109;-80
2024/04/04 08:19:10;;;;;;;8.10;2.63;;;9.00;81.10;;;;;;5032606;28;20041;-78
2024/04/04 08:21:35;;;;;;;5.40;1.50;;;9.10;81.30;;;;;;5014433;28;20440;-79
2024/04/04 08:24:01;;;;;;;3.13;1.75;;;9.30;80.90;;;;;;5016907;28;20132;-78
2024/04/04 08:26:27;;;;;;;4.60;1.10;;;9.40;80.10;;;;;;5020261;28;20386;-78
2024/04/04 08:28:53;;;;;;;4.60;1.85;;;9.30;79.20;;;;;;5032185;28;20029;-78
2024/04/04 08:31:21;;;;;;;3.22;1.08;;;9.20;79.30;;;;;;5032317;28;20023;-79
2024/04/04 08:33:46;;;;;;;1.60;0.88;;;8.90;79.30;;;;;;5032157;28;20014;-77
2024/04/04 08:36:12;;;;;;;1.73;0.80;;;8.70;79.50;;;;;;5031944;28;20040;-79
2024/04/04 08:38:38;;;;;;;5.53;1.10;;;8.50;79.60;;;;;;5032272;28;20113;-78
2024/04/04 08:41:10;;;;;;;3.03;1.35;;;8.40;80.10;;;;;;5032046;28;20414;-78
2024/04/04 08:43:36;;;;;;;4.78;1.40;;;8.40;80.50;;;;;;5031990;28;20094;-79
2024/04/04 08:46:08;;;;;;;3.95;1.20;;;8.40;80.90;;;;;;5031734;28;20487;-78
2024/04/04 08:48:34;;;;;;;6.20;2.30;;;8.40;81.10;;;;;;5032057;28;20040;-79
2024/04/04 08:51:00;;;;;;;4.80;1.55;;;8.30;81.30;;;;;;5031970;28;20026;-78
2024/04/04 08:53:26;;;;;;;2.85;1.40;;;8.50;81.20;;;;;;5014047;28;20067;-77
2024/04/04 08:55:56;;;;;;;2.55;1.00;;;8.60;80.80;;;;;;5031698;28;20420;-80
2024/04/04 08:58:23;;;;;;;3.00;0.95;;;8.60;79.90;;;;;;5031405;28;20487;-78
2024/04/04 09:00:50;;;;;;;2.80;1.07;;;8.40;80.20;;;;;;5031941;28;20104;-78
2024/04/04 09:03:16;;;;;;;5.80;1.47;;;8.20;81.40;;;;;;5031565;28;20516;-77
2024/04/04 09:05:47;;;;;;;3.97;1.10;;;8.30;81.60;;;;;;5031665;28;20144;-77
2024/04/04 09:08:15;;;;;;;2.47;1.10;;;8.30;82.00;;;;;;5014124;28;20155;-79
2024/04/04 09:10:42;;;;;;;3.92;0.60;;;8.40;82.30;;;;;;5013862;28;20068;-80
2024/04/04 09:13:09;;;;;;;1.30;0.80;;;8.20;82.90;;;;;;5031509;28;20037;-78
2024/04/04 09:15:37;;;;;;;2.38;1.15;;;8.10;83.70;;;;;;5032624;28;20091;-78
2024/04/04 09:18:07;;;;;;;1.52;1.00;;;8.10;84.50;;;;;;5031268;28;20060;-78
2024/04/04 09:20:34;;;;;;;3.63;1.10;;;8.20;84.80;;;;;;5031230;28;20029;-77
2024/04/04 09:23:03;;;;;;;2.40;1.45;;;8.10;85.20;;;;;;5031516;28;20038;-78
2024/04/04 09:25:30;;;;;;;5.32;1.40;;;8.10;85.60;;;;;;5018066;28;20383;-80
2024/04/04 09:27:57;;;;;;;1.70;1.20;;;8.40;86.00;;;;;;5030832;28;20031;-79
2024/04/04 09:30:26;;;;;;;6.22;1.30;;;8.60;85.70;;;;;;5031328;28;20026;-80
2024/04/04 09:32:53;;;;;;;3.55;2.33;;;8.80;85.50;;;;;;5031166;28;20025;-79
2024/04/04 09:35:21;;;;;;;2.60;1.20;;;9.00;85.20;;;;;;5031301;28;20021;-78
2024/04/04 09:37:50;;;;;;;3.38;1.08;;;9.10;84.00;;;;;;5031075;28;20029;-79
2024/04/04 09:40:16;;;;;;;2.95;1.30;;;8.90;84.10;;;;;;5031160;28;20045;-77
2024/04/04 09:42:46;;;;;;;4.10;1.15;;;9.00;84.30;;;;;;5031227;28;20394;-79
2024/04/04 09:45:14;;;;;;;2.63;0.98;;;9.40;83.80;;;;;;5031667;28;20067;-78
2024/04/04 09:47:45;;;;;;;4.35;1.13;;;9.30;82.20;;;;;;5031221;28;20013;-80
2024/04/04 09:50:15;;;;;;;1.75;1.20;;;9.20;83.00;;;;;;5018159;28;20057;-79
2024/04/04 09:52:41;;;;;;;2.60;1.00;;;9.40;83.10;;;;;;5013550;28;20112;-79
2024/04/04 09:55:10;;;;;;;2.35;0.95;;;9.40;82.20;;;;;;5031084;28;20058;-79
2024/04/04 09:57:38;;;;;;;5.22;1.42;;;9.30;82.20;;;;;;5013388;28;20117;-78
2024/04/04 10:00:19;;;;;;;1.63;0.90;;;9.10;82.60;;;;;;5030780;28;20020;-78
2024/04/04 10:02:49;;;;;;;1.25;0.95;;;8.60;83.60;;;;;;5031086;28;20120;-77
2024/04/04 10:05:19;;;;;;;2.17;0.85;;;8.10;85.30;;;;;;5031860;28;20100;-79
2024/04/04 10:07:49;;;;;;;1.10;0.57;;;7.70;87.00;;;;;;5031294;28;20017;-77
2024/04/04 10:10:19;;;;;;;2.53;1.15;;;7.40;88.60;;;;;;5014731;28;20033;-79
2024/04/04 10:12:51;;;;;;;2.13;1.60;;;7.30;89.90;;;;;;5034761;28;20025;-78
2024/04/04 10:15:19;;;;;;;2.17;1.17;;;7.30;90.20;;;;;;5034443;28;20022;-80
2024/04/04 10:17:55;;;;;;;4.45;1.65;;;7.30;90.30;;;;;;5034363;28;20087;-78
2024/04/04 10:20:22;;;;;;;2.92;1.75;;;7.30;90.60;;;;;;5034428;28;20026;-80
2024/04/04 10:23:09;;;;;;;2.07;1.53;;;7.40;90.90;;;;;;5034367;28;20111;-79
2024/04/04 10:25:37;;;;;;;2.50;1.60;;;7.50;91.00;;;;;;5020370;28;20251;-80
2024/04/04 10:28:03;;;;;;;;;;;7.50;91.20;;;;;;5034893;28;20017;-79
2024/04/04 10:30:37;;;;;;;1.48;1.20;;;7.40;91.00;;;;;;5034379;28;19905;-79
2024/04/04 10:33:13;;;;;;;1.40;1.30;;;7.00;91.40;;;;;;5034283;28;20018;-78
2024/04/04 10:35:39;;;;;;;2.25;0.95;;;6.80;92.00;;;;;;5034183;28;20486;-78
2024/04/04 10:38:12;;;;;;;2.70;1.25;;;6.70;92.40;;;;;;5034173;28;20147;-78
2024/04/04 10:40:38;;;;;;;3.58;1.08;;;6.60;92.50;;;;;;5034784;28;20486;-78
2024/04/04 10:43:08;;;;;;;1.08;0.75;;;6.60;92.60;;;;;;5034499;28;20041;-79
2024/04/04 10:45:38;;;;;;;2.72;1.00;;;6.60;92.60;;;;;;5034775;28;20028;-78
2024/04/04 10:48:05;;;;;;;3.08;1.40;;;6.60;92.80;;;;;;5034587;28;20017;-79
2024/04/04 10:50:33;;;;;;;2.28;1.50;;;6.60;92.70;;;;;;5034708;28;20017;-78
2024/04/04 10:52:59;;;;;;;;;;;6.60;93.00;;;;;;5016909;28;20056;-79
2024/04/04 10:55:26;;;;;;;2.75;1.38;;;6.60;92.90;;;;;;5034333;28;19909;-77
2024/04/04 10:57:55;;;;;;;2.28;1.63;;;6.50;93.30;;;;;;5016309;28;20024;-78
2024/04/04 11:00:23;;;;;;;1.65;1.52;;;6.50;93.60;;;;;;5020080;28;20026;-79
2024/04/04 11:02:50;;;;;;;3.58;2.22;;;6.40;94.00;;;;;;5033463;28;20044;-77
2024/04/04 11:05:19;;;;;;;3.30;2.70;;;6.40;94.00;;;;;;5033456;28;20024;-80
2024/04/04 11:07:46;;;;;;;2.83;2.10;;;6.30;94.30;;;;;;5033452;28;20030;-79
2024/04/04 11:10:13;;;;;;;5.03;2.53;;;6.40;94.40;;;;;;5033512;28;20082;-78
2024/04/04 11:12:39;;;;;;;2.42;2.05;;;6.30;94.20;;;;;;5033602;28;20390;-80
2024/04/04 11:15:06;;;;;;;3.97;2.25;;;6.20;94.20;;;;;;5033624;28;20028;-79
2024/04/04 11:17:36;;;;;;;2.88;2.00;;;6.20;94.40;;;;;;5033464;28;20132;-77
2024/04/04 11:20:06;;;;;;;2.90;1.98;;;6.30;94.20;;;;;;5033381;28;20394;-76
2024/04/04 11:22:35;;;;;;;2.45;1.88;;;6.30;93.90;;;;;;5033099;28;20033;-78
2024/04/04 11:25:02;;;;;;;6.55;1.77;;;6.30;93.60;;;;;;5023825;28;20026;-78
2024/04/04 11:27:28;;;;;;;3.90;1.90;;;6.20;93.30;;;;;;5029051;28;20367;-78
2024/04/04 11:29:54;;;;;;;2.35;1.85;;;6.20;93.20;;;;;;5016338;28;20029;-79
2024/04/04 11:32:19;;;;;;;2.95;1.63;;;6.30;93.30;;;;;;5033193;28;20021;-79
2024/04/04 11:34:46;;;;;;;2.97;1.67;;;6.40;93.00;;;;;;5033044;28;20021;-79
2024/04/04 11:37:12;;;;;;;5.57;2.00;;;6.40;92.60;;;;;;5033826;28;20026;-80
2024/04/04 11:39:38;;;;;;;4.93;2.53;;;6.40;92.50;;;;;;5033248;28;20010;-78
2024/04/04 11:42:04;;;;;;;6.13;2.10;;;6.40;92.60;;;;;;5032620;28;20128;-78
2024/04/04 11:44:30;;;;;;;3.80;1.90;;;6.50;92.60;;;;;;5032757;28;20101;-79
2024/04/04 11:46:56;;;;;;;12.23;2.40;;;6.70;92.30;;;;;;5033232;28;20132;-78
2024/04/04 11:49:22;;;;;;;6.03;1.80;;;6.60;92.00;;;;;;5032904;28;20364;-79
2024/04/04 11:51:47;;;;;;;5.30;2.33;;;6.60;91.80;;;;;;5032514;28;20033;-81
2024/04/04 11:54:13;;;;;;;6.50;1.98;;;6.60;91.80;;;;;;5032618;28;20071;-78
2024/04/04 11:56:46;;;;;;;8.45;2.30;;;6.70;91.70;;;;;;5032699;28;20021;-77
2024/04/04 11:59:12;;;;;;;6.43;1.50;;;6.70;91.80;;;;;;5032777;28;20061;-80
2024/04/04 12:01:39;;;;;;;6.78;1.50;;;6.90;91.50;;;;;;5032398;28;20053;-78
2024/04/04 12:04:05;;;;;;;3.87;2.10;;;6.80;90.80;;;;;;5032530;28;20045;-78
2024/04/04 12:06:31;;;;;;;4.68;1.83;;;6.80;91.00;;;;;;5032548;28;20263;-78
2024/04/04 12:08:58;;;;;;;5.72;2.38;;;6.70;91.00;;;;;;5014629;28;20040;-78
2024/04/04 12:11:23;;;;;;;3.30;1.95;;;6.70;90.80;;;;;;5014847;28;20485;-78
2024/04/04 12:13:50;;;;;;;5.70;2.88;;;6.60;90.60;;;;;;5033524;28;20028;-78
2024/04/04 12:16:19;;;;;;;5.93;3.30;;;6.40;90.80;;;;;;5034490;28;20040;-78
2024/04/04 12:21:30;;;;;;;5.53;2.83;;;6.20;91.10;;;;;;5032445;28;20095;-79
2024/04/04 12:23:56;;;;;;;11.60;3.87;;;6.10;91.10;;;;;;5031661;28;20108;-79
2024/04/04 12:26:23;;;;;;;7.03;3.25;;;6.10;91.40;;;;;;5019250;28;20027;-79
2024/04/04 12:28:53;;;;;;;6.43;3.30;;;6.10;91.60;;;;;;5032235;28;20105;-78
2024/04/04 12:31:22;;;;;;;7.53;3.42;;;6.10;91.30;;;;;;5016030;28;20021;-79
2024/04/04 12:33:48;;;;;;;4.15;2.47;;;6.00;91.20;;;;;;5031729;28;20033;-79
2024/04/04 12:36:14;;;;;;;4.90;2.38;;;5.80;91.20;;;;;;5032198;28;20097;-78
2024/04/04 12:38:40;;;;;;;4.20;2.63;;;5.70;91.30;;;;;;5032322;28;20101;-77
2024/04/04 12:41:06;;;;;;;3.97;2.95;;;5.60;91.50;;;;;;5031987;28;20105;-78
2024/04/04 12:43:32;;;;;;;4.00;2.38;;;5.50;91.60;;;;;;5032124;28;20500;-77
2024/04/04 12:46:03;;;;;;;5.57;3.13;;;5.50;91.70;;;;;;5032002;28;20104;-77
2024/04/04 12:48:31;;;;;;;7.00;3.13;;;5.50;91.70;;;;;;5019250;28;20029;-78
2024/04/04 12:50:57;;;;;;;7.95;2.97;;;5.50;91.80;;;;;;5032626;28;20022;-79
2024/04/04 12:53:25;;;;;;;5.15;3.10;;;5.50;91.70;;;;;;5031935;28;20033;-78
2024/04/04 12:55:52;;;;;;;7.05;2.13;;;5.60;91.50;;;;;;5032035;28;20055;-79
2024/04/04 12:58:17;;;;;;;6.75;2.50;;;5.60;91.00;;;;;;5031753;28;20097;-77